Wednesday, April 25, 2018, 12:18 PM GMT
Back to Local

CWWE, Western Head, N. S.

Location: , , Canada Lat: 43.983
Local Time: 12:18 PM GMT (12:18 GMT) Lon: -64.667
Time Zone: GMT Elev: 29 ft

Show me the last for .
Show Coded

Time T Td Feel RH Dir Speed Gust Alt SLP Vis Weather Sky Remarks
2018-04-25 12:00 44 43 42 95 200° 5 - - 30.30 0 None
2018-04-25 11:00 41 41 39 99 200° 3 - - 30.30 0 None
2018-04-25 10:00 37 37 33 100 220° 5 - - 30.29 0 None
2018-04-25 09:00 35 35 - 100 210° 2 - - 30.29 0 None
2018-04-25 08:00 35 35 - 100 210° 2 - - 30.30 0 None
2018-04-25 07:00 37 35 32 91 230° 6 - - 30.31 0 None
2018-04-25 06:00 37 36 32 97 230° 7 - - 30.31 0 None
2018-04-25 05:00 39 38 33 95 230° 9 - - 30.31 0 None
2018-04-25 04:00 39 37 33 92 220° 8 - - 30.32 0 None
2018-04-25 03:00 40 37 33 89 230° 10 - - 30.32 0 None
2018-04-25 02:00 38 37 32 93 230° 9 - - 30.32 0 None
2018-04-25 01:00 41 36 35 80 220° 10 - - 30.33 0 None
2018-04-25 00:00 43 36 36 77 220° 13 - - 30.32 0 None
2018-04-24 23:00 42 38 35 83 210° 16 - - 30.32 0 Peak wind: 21 mph (19 kts) from 210° at 04 min
2018-04-24 22:00 44 38 36 78 210° 20 - - 30.32 0 Peak wind: 25 mph (22 kts) from 210° at 01 min
2018-04-24 21:00 45 37 36 74 210° 22 28 - 30.32 0 Peak wind: 29 mph (26 kts) from 210° at 17 min
2018-04-24 20:00 47 35 38 62 210° 24 30 - 30.32 0 Peak wind: 31 mph (27 kts) from 200° at 35 min
2018-04-24 19:00 48 36 40 64 200° 24 - - 30.32 0 Peak wind: 32 mph (28 kts) from 210° at 24 min
2018-04-24 18:00 49 36 41 61 200° 26 - - 30.34 0 Peak wind: 31 mph (27 kts) from 200° at 11 min
2018-04-24 17:00 49 37 41 63 200° 24 - - 30.34 0 Peak wind: 28 mph (25 kts) from 200° at 46 min
2018-04-24 16:00 49 38 42 67 200° 20 - - 30.36 0 Peak wind: 25 mph (22 kts) from 190° at 36 min
2018-04-24 15:00 47 38 40 69 200° 21 - - 30.38 0 Peak wind: 26 mph (23 kts) from 200° at 57 min
2018-04-24 14:00 47 39 41 72 200° 17 - - 30.40 0 Peak wind: 19 mph (17 kts) from 200° at 53 min
2018-04-24 13:00 50 35 45 56 210° 13 - - 30.40 0 None

Support USWX by starting your Amazon purchase here.